sensor_id;sensor_type;location;lat;lon;timestamp;P1;durP1;ratioP1;P2;durP2;ratioP2
60308;SDS011;50313;52.894;6.492;2023-03-01T00:01:12;1.75;;;1.65;;
60308;SDS011;50313;52.894;6.492;2023-03-01T00:03:40;2.60;;;1.88;;
60308;SDS011;50313;52.894;6.492;2023-03-01T00:06:07;1.63;;;1.52;;
60308;SDS011;50313;52.894;6.492;2023-03-01T00:08:32;1.52;;;1.48;;
60308;SDS011;50313;52.894;6.492;2023-03-01T00:11:10;0.75;;;0.75;;
60308;SDS011;50313;52.894;6.492;2023-03-01T00:13:44;2.45;;;2.25;;
60308;SDS011;50313;52.894;6.492;2023-03-01T00:16:12;2.00;;;1.85;;
60308;SDS011;50313;52.894;6.492;2023-03-01T00:18:49;1.85;;;1.52;;
60308;SDS011;50313;52.894;6.492;2023-03-01T00:21:15;2.45;;;1.92;;
60308;SDS011;50313;52.894;6.492;2023-03-01T00:23:42;2.92;;;2.63;;
60308;SDS011;50313;52.894;6.492;2023-03-01T00:26:09;2.05;;;1.95;;
60308;SDS011;50313;52.894;6.492;2023-03-01T00:28:37;1.48;;;1.38;;
60308;SDS011;50313;52.894;6.492;2023-03-01T00:31:07;1.23;;;1.13;;
60308;SDS011;50313;52.894;6.492;2023-03-01T00:33:38;2.42;;;1.95;;
60308;SDS011;50313;52.894;6.492;2023-03-01T00:36:05;2.10;;;2.00;;
60308;SDS011;50313;52.894;6.492;2023-03-01T00:38:34;2.15;;;2.05;;
60308;SDS011;50313;52.894;6.492;2023-03-01T00:41:10;5.35;;;3.65;;
60308;SDS011;50313;52.894;6.492;2023-03-01T00:43:38;1.33;;;1.33;;
60308;SDS011;50313;52.894;6.492;2023-03-01T00:46:04;1.10;;;1.10;;
60308;SDS011;50313;52.894;6.492;2023-03-01T00:48:31;3.50;;;1.35;;
60308;SDS011;50313;52.894;6.492;2023-03-01T00:51:03;1.17;;;1.17;;
60308;SDS011;50313;52.894;6.492;2023-03-01T00:53:30;1.38;;;1.35;;
60308;SDS011;50313;52.894;6.492;2023-03-01T00:55:56;2.40;;;1.55;;
60308;SDS011;50313;52.894;6.492;2023-03-01T00:58:23;2.47;;;2.05;;
60308;SDS011;50313;52.894;6.492;2023-03-01T01:00:48;2.70;;;2.47;;
60308;SDS011;50313;52.894;6.492;2023-03-01T01:03:14;3.22;;;2.10;;
60308;SDS011;50313;52.894;6.492;2023-03-01T01:05:40;1.27;;;1.27;;
60308;SDS011;50313;52.894;6.492;2023-03-01T01:08:05;2.72;;;2.53;;
60308;SDS011;50313;52.894;6.492;2023-03-01T01:10:33;1.85;;;1.75;;
60308;SDS011;50313;52.894;6.492;2023-03-01T01:12:59;2.10;;;1.98;;
60308;SDS011;50313;52.894;6.492;2023-03-01T01:15:26;4.15;;;1.88;;
60308;SDS011;50313;52.894;6.492;2023-03-01T01:17:52;13.27;;;3.28;;
60308;SDS011;50313;52.894;6.492;2023-03-01T01:20:18;2.20;;;1.35;;
60308;SDS011;50313;52.894;6.492;2023-03-01T01:22:43;0.85;;;0.85;;
60308;SDS011;50313;52.894;6.492;2023-03-01T01:25:09;1.30;;;1.23;;
60308;SDS011;50313;52.894;6.492;2023-03-01T01:27:35;2.35;;;2.25;;
60308;SDS011;50313;52.894;6.492;2023-03-01T01:30:02;3.42;;;3.15;;
60308;SDS011;50313;52.894;6.492;2023-03-01T01:32:28;0.90;;;0.90;;
60308;SDS011;50313;52.894;6.492;2023-03-01T01:34:54;3.92;;;2.33;;
60308;SDS011;50313;52.894;6.492;2023-03-01T01:37:20;3.30;;;1.73;;
60308;SDS011;50313;52.894;6.492;2023-03-01T01:39:46;1.80;;;1.70;;
60308;SDS011;50313;52.894;6.492;2023-03-01T01:42:16;2.05;;;1.95;;
60308;SDS011;50313;52.894;6.492;2023-03-01T01:44:46;2.85;;;2.17;;
60308;SDS011;50313;52.894;6.492;2023-03-01T01:47:16;2.42;;;2.28;;
60308;SDS011;50313;52.894;6.492;2023-03-01T01:49:49;1.25;;;1.25;;
60308;SDS011;50313;52.894;6.492;2023-03-01T01:52:26;1.15;;;1.15;;
60308;SDS011;50313;52.894;6.492;2023-03-01T02:00:08;1.80;;;1.48;;
60308;SDS011;50313;52.894;6.492;2023-03-01T02:02:37;2.33;;;1.50;;
60308;SDS011;50313;52.894;6.492;2023-03-01T02:05:15;1.90;;;1.80;;
60308;SDS011;50313;52.894;6.492;2023-03-01T02:07:53;1.92;;;1.85;;
60308;SDS011;50313;52.894;6.492;2023-03-01T02:10:21;1.60;;;1.58;;
60308;SDS011;50313;52.894;6.492;2023-03-01T02:12:48;1.38;;;1.38;;
60308;SDS011;50313;52.894;6.492;2023-03-01T02:15:15;1.15;;;1.15;;
60308;SDS011;50313;52.894;6.492;2023-03-01T02:17:41;8.23;;;3.97;;
60308;SDS011;50313;52.894;6.492;2023-03-01T02:20:10;4.32;;;2.40;;
60308;SDS011;50313;52.894;6.492;2023-03-01T02:22:39;3.03;;;2.58;;
60308;SDS011;50313;52.894;6.492;2023-03-01T02:30:18;1.50;;;1.40;;
60308;SDS011;50313;52.894;6.492;2023-03-01T02:32:46;2.00;;;1.90;;
60308;SDS011;50313;52.894;6.492;2023-03-01T02:35:14;1.38;;;1.38;;
60308;SDS011;50313;52.894;6.492;2023-03-01T02:37:42;1.92;;;1.83;;
60308;SDS011;50313;52.894;6.492;2023-03-01T02:40:10;1.92;;;1.52;;
60308;SDS011;50313;52.894;6.492;2023-03-01T02:42:53;1.10;;;1.08;;
60308;SDS011;50313;52.894;6.492;2023-03-01T02:45:21;2.08;;;1.98;;
60308;SDS011;50313;52.894;6.492;2023-03-01T02:47:48;1.00;;;1.00;;
60308;SDS011;50313;52.894;6.492;2023-03-01T02:50:16;1.77;;;1.38;;
60308;SDS011;50313;52.894;6.492;2023-03-01T02:55:22;2.40;;;1.67;;
60308;SDS011;50313;52.894;6.492;2023-03-01T02:57:48;1.33;;;1.27;;
60308;SDS011;50313;52.894;6.492;2023-03-01T03:00:18;1.08;;;1.08;;
60308;SDS011;50313;52.894;6.492;2023-03-01T03:02:47;0.70;;;0.70;;
60308;SDS011;50313;52.894;6.492;2023-03-01T03:05:18;1.88;;;1.77;;
60308;SDS011;50313;52.894;6.492;2023-03-01T03:07:46;2.03;;;1.92;;
60308;SDS011;50313;52.894;6.492;2023-03-01T03:10:15;2.30;;;2.20;;
60308;SDS011;50313;52.894;6.492;2023-03-01T03:12:44;1.02;;;1.02;;
60308;SDS011;50313;52.894;6.492;2023-03-01T03:15:21;1.20;;;1.20;;
60308;SDS011;50313;52.894;6.492;2023-03-01T03:17:47;1.35;;;1.25;;
60308;SDS011;50313;52.894;6.492;2023-03-01T03:20:15;0.85;;;0.85;;
60308;SDS011;50313;52.894;6.492;2023-03-01T03:22:44;3.80;;;1.77;;
60308;SDS011;50313;52.894;6.492;2023-03-01T03:25:11;1.02;;;1.02;;
60308;SDS011;50313;52.894;6.492;2023-03-01T03:27:37;1.45;;;1.35;;
60308;SDS011;50313;52.894;6.492;2023-03-01T03:30:05;2.65;;;1.15;;
60308;SDS011;50313;52.894;6.492;2023-03-01T03:32:40;1.23;;;1.23;;
60308;SDS011;50313;52.894;6.492;2023-03-01T03:35:08;5.53;;;2.17;;
60308;SDS011;50313;52.894;6.492;2023-03-01T03:37:38;1.25;;;1.23;;
60308;SDS011;50313;52.894;6.492;2023-03-01T03:40:23;1.17;;;0.88;;
60308;SDS011;50313;52.894;6.492;2023-03-01T03:42:50;0.70;;;0.70;;
60308;SDS011;50313;52.894;6.492;2023-03-01T03:45:16;1.60;;;1.50;;
60308;SDS011;50313;52.894;6.492;2023-03-01T03:47:42;1.17;;;1.13;;
60308;SDS011;50313;52.894;6.492;2023-03-01T03:50:09;1.30;;;1.30;;
60308;SDS011;50313;52.894;6.492;2023-03-01T03:52:37;1.33;;;1.33;;
60308;SDS011;50313;52.894;6.492;2023-03-01T03:55:03;0.98;;;0.98;;
60308;SDS011;50313;52.894;6.492;2023-03-01T03:57:34;1.95;;;1.10;;
60308;SDS011;50313;52.894;6.492;2023-03-01T04:00:00;2.42;;;2.33;;
60308;SDS011;50313;52.894;6.492;2023-03-01T04:02:29;1.00;;;1.00;;
60308;SDS011;50313;52.894;6.492;2023-03-01T04:04:55;5.35;;;2.22;;
60308;SDS011;50313;52.894;6.492;2023-03-01T04:07:21;1.13;;;1.13;;
60308;SDS011;50313;52.894;6.492;2023-03-01T04:09:47;2.03;;;1.92;;
60308;SDS011;50313;52.894;6.492;2023-03-01T04:12:12;3.25;;;1.17;;
60308;SDS011;50313;52.894;6.492;2023-03-01T04:14:38;1.60;;;1.58;;
60308;SDS011;50313;52.894;6.492;2023-03-01T04:17:04;2.65;;;2.45;;
60308;SDS011;50313;52.894;6.492;2023-03-01T04:19:33;2.17;;;2.08;;
60308;SDS011;50313;52.894;6.492;2023-03-01T04:22:01;3.08;;;2.25;;
60308;SDS011;50313;52.894;6.492;2023-03-01T04:24:37;0.52;;;0.52;;
60308;SDS011;50313;52.894;6.492;2023-03-01T04:27:03;1.33;;;1.25;;
60308;SDS011;50313;52.894;6.492;2023-03-01T04:29:28;2.35;;;2.13;;
60308;SDS011;50313;52.894;6.492;2023-03-01T04:31:54;1.17;;;1.17;;
60308;SDS011;50313;52.894;6.492;2023-03-01T04:34:20;1.83;;;0.85;;
60308;SDS011;50313;52.894;6.492;2023-03-01T04:36:46;2.88;;;2.67;;
60308;SDS011;50313;52.894;6.492;2023-03-01T04:39:11;1.50;;;1.50;;
60308;SDS011;50313;52.894;6.492;2023-03-01T04:41:37;1.15;;;1.15;;
60308;SDS011;50313;52.894;6.492;2023-03-01T04:44:04;1.75;;;1.65;;
60308;SDS011;50313;52.894;6.492;2023-03-01T04:46:31;2.55;;;1.98;;
60308;SDS011;50313;52.894;6.492;2023-03-01T04:48:57;1.55;;;1.55;;
60308;SDS011;50313;52.894;6.492;2023-03-01T04:51:22;1.58;;;1.55;;
60308;SDS011;50313;52.894;6.492;2023-03-01T04:53:48;0.77;;;0.77;;
60308;SDS011;50313;52.894;6.492;2023-03-01T04:56:14;1.55;;;1.45;;
60308;SDS011;50313;52.894;6.492;2023-03-01T04:58:43;2.40;;;1.63;;
60308;SDS011;50313;52.894;6.492;2023-03-01T05:01:09;1.05;;;1.05;;
60308;SDS011;50313;52.894;6.492;2023-03-01T05:03:40;1.38;;;1.30;;
60308;SDS011;50313;52.894;6.492;2023-03-01T05:06:10;4.32;;;1.80;;
60308;SDS011;50313;52.894;6.492;2023-03-01T05:08:37;0.75;;;0.75;;
60308;SDS011;50313;52.894;6.492;2023-03-01T05:11:03;1.15;;;1.15;;
60308;SDS011;50313;52.894;6.492;2023-03-01T05:13:30;1.25;;;1.23;;
60308;SDS011;50313;52.894;6.492;2023-03-01T05:15:57;0.80;;;0.80;;
60308;SDS011;50313;52.894;6.492;2023-03-01T05:18:26;0.70;;;0.70;;
60308;SDS011;50313;52.894;6.492;2023-03-01T05:21:01;1.27;;;1.23;;
60308;SDS011;50313;52.894;6.492;2023-03-01T05:23:32;0.60;;;0.60;;
60308;SDS011;50313;52.894;6.492;2023-03-01T05:25:58;1.15;;;1.15;;
60308;SDS011;50313;52.894;6.492;2023-03-01T05:28:29;1.40;;;1.40;;
60308;SDS011;50313;52.894;6.492;2023-03-01T05:30:56;6.70;;;2.08;;
60308;SDS011;50313;52.894;6.492;2023-03-01T05:33:22;0.68;;;0.68;;
60308;SDS011;50313;52.894;6.492;2023-03-01T05:35:49;0.60;;;0.60;;
60308;SDS011;50313;52.894;6.492;2023-03-01T05:38:17;13.65;;;2.55;;
60308;SDS011;50313;52.894;6.492;2023-03-01T05:40:43;1.58;;;1.55;;
60308;SDS011;50313;52.894;6.492;2023-03-01T05:43:14;0.93;;;0.93;;
60308;SDS011;50313;52.894;6.492;2023-03-01T05:48:07;1.55;;;1.23;;
60308;SDS011;50313;52.894;6.492;2023-03-01T05:50:40;0.52;;;0.52;;
60308;SDS011;50313;52.894;6.492;2023-03-01T05:53:15;3.20;;;1.63;;
60308;SDS011;50313;52.894;6.492;2023-03-01T05:55:42;1.42;;;1.42;;
60308;SDS011;50313;52.894;6.492;2023-03-01T06:05:27;2.85;;;0.90;;
60308;SDS011;50313;52.894;6.492;2023-03-01T06:07:53;1.10;;;1.10;;
60308;SDS011;50313;52.894;6.492;2023-03-01T06:10:20;1.65;;;1.60;;
60308;SDS011;50313;52.894;6.492;2023-03-01T06:12:47;1.05;;;1.05;;
60308;SDS011;50313;52.894;6.492;2023-03-01T06:15:14;1.00;;;1.00;;
60308;SDS011;50313;52.894;6.492;2023-03-01T06:17:42;1.25;;;1.15;;
60308;SDS011;50313;52.894;6.492;2023-03-01T06:20:20;0.70;;;0.70;;
60308;SDS011;50313;52.894;6.492;2023-03-01T06:22:47;12.98;;;6.15;;
60308;SDS011;50313;52.894;6.492;2023-03-01T06:25:22;10.45;;;7.43;;
60308;SDS011;50313;52.894;6.492;2023-03-01T06:42:33;0.85;;;0.85;;
60308;SDS011;50313;52.894;6.492;2023-03-01T06:52:17;4.43;;;2.80;;
60308;SDS011;50313;52.894;6.492;2023-03-01T08:36:51;1.00;;;1.00;;
60308;SDS011;50313;52.894;6.492;2023-03-01T08:51:33;1.13;;;1.13;;
60308;SDS011;50313;52.894;6.492;2023-03-01T08:54:11;1.52;;;1.52;;
60308;SDS011;50313;52.894;6.492;2023-03-01T08:56:40;12.82;;;3.40;;
60308;SDS011;50313;52.894;6.492;2023-03-01T08:59:05;4.53;;;1.70;;
60308;SDS011;50313;52.894;6.492;2023-03-01T09:01:32;2.47;;;2.38;;
60308;SDS011;50313;52.894;6.492;2023-03-01T09:13:42;6.13;;;2.58;;
60308;SDS011;50313;52.894;6.492;2023-03-01T09:16:10;26.23;;;11.02;;
60308;SDS011;50313;52.894;6.492;2023-03-01T09:18:36;27.92;;;13.98;;
60308;SDS011;50313;52.894;6.492;2023-03-01T09:21:15;7.78;;;4.30;;
60308;SDS011;50313;52.894;6.492;2023-03-01T09:23:42;6.90;;;5.03;;
60308;SDS011;50313;52.894;6.492;2023-03-01T09:26:10;7.28;;;3.85;;
60308;SDS011;50313;52.894;6.492;2023-03-01T09:28:38;7.03;;;6.10;;
60308;SDS011;50313;52.894;6.492;2023-03-01T09:31:06;7.40;;;5.18;;
60308;SDS011;50313;52.894;6.492;2023-03-01T09:33:32;5.30;;;1.98;;
60308;SDS011;50313;52.894;6.492;2023-03-01T09:36:05;4.25;;;3.33;;
60308;SDS011;50313;52.894;6.492;2023-03-01T09:38:33;9.60;;;4.57;;
60308;SDS011;50313;52.894;6.492;2023-03-01T09:41:00;3.88;;;3.55;;
60308;SDS011;50313;52.894;6.492;2023-03-01T09:46:04;5.00;;;4.57;;
60308;SDS011;50313;52.894;6.492;2023-03-01T09:48:36;5.30;;;3.00;;
60308;SDS011;50313;52.894;6.492;2023-03-01T09:51:24;3.80;;;3.17;;
60308;SDS011;50313;52.894;6.492;2023-03-01T09:53:58;1.73;;;1.63;;
60308;SDS011;50313;52.894;6.492;2023-03-01T09:56:30;2.50;;;2.40;;
60308;SDS011;50313;52.894;6.492;2023-03-01T10:00:00;9.48;;;2.92;;
60308;SDS011;50313;52.894;6.492;2023-03-01T10:04:54;4.28;;;3.97;;
60308;SDS011;50313;52.894;6.492;2023-03-01T10:07:32;2.65;;;2.50;;
60308;SDS011;50313;52.894;6.492;2023-03-01T10:10:27;3.63;;;3.30;;
60308;SDS011;50313;52.894;6.492;2023-03-01T10:12:56;1.70;;;1.60;;
60308;SDS011;50313;52.894;6.492;2023-03-01T10:15:32;5.43;;;3.28;;
60308;SDS011;50313;52.894;6.492;2023-03-01T10:18:04;3.15;;;2.80;;
60308;SDS011;50313;52.894;6.492;2023-03-01T10:20:46;4.07;;;3.75;;
60308;SDS011;50313;52.894;6.492;2023-03-01T10:23:19;5.93;;;4.72;;
60308;SDS011;50313;52.894;6.492;2023-03-01T10:31:19;4.55;;;4.25;;
60308;SDS011;50313;52.894;6.492;2023-03-01T10:33:54;2.70;;;1.83;;
60308;SDS011;50313;52.894;6.492;2023-03-01T10:36:22;2.58;;;2.38;;
60308;SDS011;50313;52.894;6.492;2023-03-01T10:41:17;4.68;;;1.45;;
60308;SDS011;50313;52.894;6.492;2023-03-01T10:43:50;3.25;;;2.55;;
60308;SDS011;50313;52.894;6.492;2023-03-01T10:46:30;2.30;;;2.20;;
60308;SDS011;50313;52.894;6.492;2023-03-01T10:51:44;3.80;;;3.50;;
60308;SDS011;50313;52.894;6.492;2023-03-01T10:54:21;1.27;;;1.00;;
60308;SDS011;50313;52.894;6.492;2023-03-01T10:56:51;15.15;;;2.38;;
60308;SDS011;50313;52.894;6.492;2023-03-01T10:59:26;1.05;;;1.05;;
60308;SDS011;50313;52.894;6.492;2023-03-01T11:02:14;4.13;;;2.45;;
60308;SDS011;50313;52.894;6.492;2023-03-01T11:04:58;2.88;;;2.67;;
60308;SDS011;50313;52.894;6.492;2023-03-01T11:07:48;2.10;;;1.98;;
60308;SDS011;50313;52.894;6.492;2023-03-01T11:10:19;5.38;;;3.45;;
60308;SDS011;50313;52.894;6.492;2023-03-01T11:12:50;2.47;;;2.38;;
60308;SDS011;50313;52.894;6.492;2023-03-01T11:15:30;3.35;;;3.00;;
60308;SDS011;50313;52.894;6.492;2023-03-01T11:17:56;2.30;;;2.15;;
60308;SDS011;50313;52.894;6.492;2023-03-01T11:20:27;11.73;;;3.08;;
60308;SDS011;50313;52.894;6.492;2023-03-01T11:23:03;7.82;;;3.30;;
60308;SDS011;50313;52.894;6.492;2023-03-01T11:25:34;8.35;;;3.17;;
60308;SDS011;50313;52.894;6.492;2023-03-01T11:28:03;2.30;;;2.00;;
60308;SDS011;50313;52.894;6.492;2023-03-01T11:33:19;3.20;;;2.67;;
60308;SDS011;50313;52.894;6.492;2023-03-01T11:35:54;2.38;;;2.17;;
60308;SDS011;50313;52.894;6.492;2023-03-01T11:38:25;6.00;;;3.28;;
60308;SDS011;50313;52.894;6.492;2023-03-01T11:43:41;4.28;;;3.15;;
60308;SDS011;50313;52.894;6.492;2023-03-01T11:49:33;3.05;;;2.72;;
60308;SDS011;50313;52.894;6.492;2023-03-01T11:52:39;5.55;;;2.40;;
60308;SDS011;50313;52.894;6.492;2023-03-01T12:12:09;7.57;;;2.03;;
60308;SDS011;50313;52.894;6.492;2023-03-01T12:14:45;8.40;;;2.83;;
60308;SDS011;50313;52.894;6.492;2023-03-01T12:31:42;6.82;;;4.20;;
60308;SDS011;50313;52.894;6.492;2023-03-01T12:37:21;4.88;;;2.88;;
60308;SDS011;50313;52.894;6.492;2023-03-01T12:39:54;3.47;;;3.17;;
60308;SDS011;50313;52.894;6.492;2023-03-01T12:50:20;6.43;;;2.65;;
60308;SDS011;50313;52.894;6.492;2023-03-01T12:52:52;3.65;;;3.33;;
60308;SDS011;50313;52.894;6.492;2023-03-01T12:55:31;3.97;;;3.15;;
60308;SDS011;50313;52.894;6.492;2023-03-01T13:10:52;8.05;;;3.15;;
60308;SDS011;50313;52.894;6.492;2023-03-01T13:13:28;4.03;;;2.65;;
60308;SDS011;50313;52.894;6.492;2023-03-01T13:15:55;8.77;;;4.78;;
60308;SDS011;50313;52.894;6.492;2023-03-01T13:20:55;5.38;;;4.13;;
60308;SDS011;50313;52.894;6.492;2023-03-01T13:34:01;7.68;;;3.40;;
60308;SDS011;50313;52.894;6.492;2023-03-01T13:46:56;6.57;;;4.15;;
60308;SDS011;50313;52.894;6.492;2023-03-01T13:49:40;9.55;;;4.18;;
60308;SDS011;50313;52.894;6.492;2023-03-01T13:54:55;13.27;;;5.30;;
60308;SDS011;50313;52.894;6.492;2023-03-01T13:57:22;6.45;;;4.65;;
60308;SDS011;50313;52.894;6.492;2023-03-01T13:59:53;8.65;;;5.47;;
60308;SDS011;50313;52.894;6.492;2023-03-01T14:02:19;8.95;;;4.40;;
60308;SDS011;50313;52.894;6.492;2023-03-01T14:04:46;6.35;;;3.80;;
60308;SDS011;50313;52.894;6.492;2023-03-01T14:07:22;4.72;;;3.67;;
60308;SDS011;50313;52.894;6.492;2023-03-01T14:09:53;7.60;;;3.85;;
60308;SDS011;50313;52.894;6.492;2023-03-01T14:20:41;6.10;;;3.22;;
60308;SDS011;50313;52.894;6.492;2023-03-01T14:23:12;3.08;;;2.30;;
60308;SDS011;50313;52.894;6.492;2023-03-01T14:25:52;8.02;;;3.55;;
60308;SDS011;50313;52.894;6.492;2023-03-01T14:28:23;6.22;;;4.22;;
60308;SDS011;50313;52.894;6.492;2023-03-01T14:30:55;11.20;;;3.88;;
60308;SDS011;50313;52.894;6.492;2023-03-01T14:33:27;5.80;;;3.30;;
60308;SDS011;50313;52.894;6.492;2023-03-01T14:35:58;5.65;;;4.05;;
60308;SDS011;50313;52.894;6.492;2023-03-01T14:38:30;9.02;;;3.40;;
60308;SDS011;50313;52.894;6.492;2023-03-01T14:41:11;6.43;;;3.00;;
60308;SDS011;50313;52.894;6.492;2023-03-01T14:43:45;4.38;;;2.83;;
60308;SDS011;50313;52.894;6.492;2023-03-01T14:46:21;7.78;;;4.07;;
60308;SDS011;50313;52.894;6.492;2023-03-01T14:49:01;6.97;;;3.55;;
60308;SDS011;50313;52.894;6.492;2023-03-01T14:51:36;6.78;;;3.47;;
60308;SDS011;50313;52.894;6.492;2023-03-01T14:54:16;6.70;;;3.97;;
60308;SDS011;50313;52.894;6.492;2023-03-01T14:56:48;7.28;;;3.88;;
60308;SDS011;50313;52.894;6.492;2023-03-01T14:59:15;8.85;;;3.55;;
60308;SDS011;50313;52.894;6.492;2023-03-01T15:01:43;12.80;;;3.50;;
60308;SDS011;50313;52.894;6.492;2023-03-01T15:04:11;4.75;;;3.00;;
60308;SDS011;50313;52.894;6.492;2023-03-01T15:06:38;6.80;;;4.15;;
60308;SDS011;50313;52.894;6.492;2023-03-01T15:09:04;10.43;;;4.38;;
60308;SDS011;50313;52.894;6.492;2023-03-01T15:11:32;8.15;;;4.60;;
60308;SDS011;50313;52.894;6.492;2023-03-01T15:13:58;7.80;;;4.22;;
60308;SDS011;50313;52.894;6.492;2023-03-01T15:16:31;7.50;;;4.25;;
60308;SDS011;50313;52.894;6.492;2023-03-01T15:18:59;7.15;;;2.95;;
60308;SDS011;50313;52.894;6.492;2023-03-01T15:21:34;7.40;;;3.45;;
60308;SDS011;50313;52.894;6.492;2023-03-01T15:24:16;8.23;;;4.57;;
60308;SDS011;50313;52.894;6.492;2023-03-01T15:27:12;6.60;;;4.45;;
60308;SDS011;50313;52.894;6.492;2023-03-01T15:29:33;8.55;;;4.50;;
60308;SDS011;50313;52.894;6.492;2023-03-01T15:32:22;8.73;;;4.07;;
60308;SDS011;50313;52.894;6.492;2023-03-01T15:35:00;12.95;;;3.63;;
60308;SDS011;50313;52.894;6.492;2023-03-01T15:37:47;7.88;;;3.63;;
60308;SDS011;50313;52.894;6.492;2023-03-01T15:40:21;5.53;;;3.33;;
60308;SDS011;50313;52.894;6.492;2023-03-01T15:42:57;12.03;;;6.33;;
60308;SDS011;50313;52.894;6.492;2023-03-01T15:45:24;7.28;;;4.05;;
60308;SDS011;50313;52.894;6.492;2023-03-01T15:47:58;8.45;;;4.85;;
60308;SDS011;50313;52.894;6.492;2023-03-01T15:50:31;8.68;;;4.75;;
60308;SDS011;50313;52.894;6.492;2023-03-01T15:52:59;8.90;;;4.50;;
60308;SDS011;50313;52.894;6.492;2023-03-01T15:55:29;10.10;;;5.47;;
60308;SDS011;50313;52.894;6.492;2023-03-01T15:58:12;10.13;;;5.18;;
60308;SDS011;50313;52.894;6.492;2023-03-01T16:00:40;7.00;;;3.80;;
60308;SDS011;50313;52.894;6.492;2023-03-01T16:03:07;6.07;;;4.30;;
60308;SDS011;50313;52.894;6.492;2023-03-01T16:05:36;8.30;;;4.07;;
60308;SDS011;50313;52.894;6.492;2023-03-01T16:08:03;9.45;;;4.97;;
60308;SDS011;50313;52.894;6.492;2023-03-01T16:10:31;6.85;;;3.92;;
60308;SDS011;50313;52.894;6.492;2023-03-01T16:12:57;8.40;;;4.43;;
60308;SDS011;50313;52.894;6.492;2023-03-01T16:15:31;9.23;;;4.95;;
60308;SDS011;50313;52.894;6.492;2023-03-01T16:18:01;8.60;;;5.53;;
60308;SDS011;50313;52.894;6.492;2023-03-01T16:20:27;8.73;;;4.22;;
60308;SDS011;50313;52.894;6.492;2023-03-01T16:22:55;9.10;;;4.68;;
60308;SDS011;50313;52.894;6.492;2023-03-01T16:25:27;11.20;;;5.22;;
60308;SDS011;50313;52.894;6.492;2023-03-01T16:27:54;9.85;;;5.25;;
60308;SDS011;50313;52.894;6.492;2023-03-01T16:30:21;5.68;;;4.25;;
60308;SDS011;50313;52.894;6.492;2023-03-01T16:32:48;8.27;;;4.78;;
60308;SDS011;50313;52.894;6.492;2023-03-01T16:35:16;10.80;;;5.03;;
60308;SDS011;50313;52.894;6.492;2023-03-01T16:37:43;11.18;;;5.53;;
60308;SDS011;50313;52.894;6.492;2023-03-01T16:40:19;9.80;;;5.47;;
60308;SDS011;50313;52.894;6.492;2023-03-01T16:42:51;10.13;;;4.63;;
60308;SDS011;50313;52.894;6.492;2023-03-01T16:45:18;7.53;;;4.95;;
60308;SDS011;50313;52.894;6.492;2023-03-01T16:47:44;7.78;;;4.15;;
60308;SDS011;50313;52.894;6.492;2023-03-01T16:50:10;10.05;;;5.00;;
60308;SDS011;50313;52.894;6.492;2023-03-01T16:52:36;8.82;;;4.68;;
60308;SDS011;50313;52.894;6.492;2023-03-01T16:55:02;7.55;;;4.60;;
60308;SDS011;50313;52.894;6.492;2023-03-01T16:57:29;10.32;;;4.20;;
60308;SDS011;50313;52.894;6.492;2023-03-01T16:59:55;6.88;;;5.32;;
60308;SDS011;50313;52.894;6.492;2023-03-01T17:02:21;7.85;;;4.70;;
60308;SDS011;50313;52.894;6.492;2023-03-01T17:04:54;11.90;;;5.15;;
60308;SDS011;50313;52.894;6.492;2023-03-01T17:09:46;6.68;;;3.88;;
60308;SDS011;50313;52.894;6.492;2023-03-01T17:12:13;9.20;;;4.22;;
60308;SDS011;50313;52.894;6.492;2023-03-01T17:14:40;8.77;;;4.60;;
60308;SDS011;50313;52.894;6.492;2023-03-01T17:17:07;6.03;;;4.43;;
60308;SDS011;50313;52.894;6.492;2023-03-01T17:19:42;6.22;;;4.95;;
60308;SDS011;50313;52.894;6.492;2023-03-01T17:22:09;11.70;;;4.93;;
60308;SDS011;50313;52.894;6.492;2023-03-01T17:24:36;11.90;;;4.32;;
60308;SDS011;50313;52.894;6.492;2023-03-01T17:27:03;14.55;;;4.88;;
60308;SDS011;50313;52.894;6.492;2023-03-01T17:29:29;5.85;;;3.75;;
60308;SDS011;50313;52.894;6.492;2023-03-01T17:31:55;7.72;;;3.60;;
60308;SDS011;50313;52.894;6.492;2023-03-01T17:34:22;11.10;;;4.13;;
60308;SDS011;50313;52.894;6.492;2023-03-01T17:36:48;13.32;;;4.78;;
60308;SDS011;50313;52.894;6.492;2023-03-01T17:39:16;5.18;;;3.70;;
60308;SDS011;50313;52.894;6.492;2023-03-01T17:41:44;4.50;;;3.53;;
60308;SDS011;50313;52.894;6.492;2023-03-01T17:44:10;6.90;;;3.63;;
60308;SDS011;50313;52.894;6.492;2023-03-01T17:46:36;6.72;;;4.47;;
60308;SDS011;50313;52.894;6.492;2023-03-01T17:49:03;6.35;;;4.10;;
60308;SDS011;50313;52.894;6.492;2023-03-01T17:51:28;6.88;;;4.45;;
60308;SDS011;50313;52.894;6.492;2023-03-01T17:53:54;10.82;;;4.50;;
60308;SDS011;50313;52.894;6.492;2023-03-01T17:56:20;10.50;;;3.55;;
60308;SDS011;50313;52.894;6.492;2023-03-01T17:58:45;10.73;;;4.70;;
60308;SDS011;50313;52.894;6.492;2023-03-01T18:01:15;8.77;;;4.32;;
60308;SDS011;50313;52.894;6.492;2023-03-01T18:03:43;4.80;;;3.40;;
60308;SDS011;50313;52.894;6.492;2023-03-01T18:06:13;5.88;;;4.97;;
60308;SDS011;50313;52.894;6.492;2023-03-01T18:08:40;7.35;;;3.38;;
60308;SDS011;50313;52.894;6.492;2023-03-01T18:11:07;5.68;;;4.45;;
60308;SDS011;50313;52.894;6.492;2023-03-01T18:13:34;9.10;;;4.10;;
60308;SDS011;50313;52.894;6.492;2023-03-01T18:16:03;5.95;;;4.18;;
60308;SDS011;50313;52.894;6.492;2023-03-01T18:18:33;4.13;;;3.72;;
60308;SDS011;50313;52.894;6.492;2023-03-01T18:20:59;6.22;;;5.28;;
60308;SDS011;50313;52.894;6.492;2023-03-01T18:23:26;9.00;;;5.07;;
60308;SDS011;50313;52.894;6.492;2023-03-01T18:25:57;17.17;;;4.00;;
60308;SDS011;50313;52.894;6.492;2023-03-01T18:28:27;7.95;;;5.32;;
60308;SDS011;50313;52.894;6.492;2023-03-01T18:30:57;6.95;;;3.80;;
60308;SDS011;50313;52.894;6.492;2023-03-01T18:33:28;4.03;;;2.90;;
60308;SDS011;50313;52.894;6.492;2023-03-01T18:35:55;11.60;;;4.13;;
60308;SDS011;50313;52.894;6.492;2023-03-01T18:38:21;12.88;;;5.75;;
60308;SDS011;50313;52.894;6.492;2023-03-01T18:40:47;6.30;;;3.72;;
60308;SDS011;50313;52.894;6.492;2023-03-01T18:43:13;7.40;;;6.28;;
60308;SDS011;50313;52.894;6.492;2023-03-01T18:45:39;6.60;;;3.80;;
60308;SDS011;50313;52.894;6.492;2023-03-01T18:48:06;5.30;;;2.47;;
60308;SDS011;50313;52.894;6.492;2023-03-01T18:50:32;6.93;;;3.35;;
60308;SDS011;50313;52.894;6.492;2023-03-01T18:52:57;4.70;;;3.90;;
60308;SDS011;50313;52.894;6.492;2023-03-01T18:55:23;7.70;;;5.88;;
60308;SDS011;50313;52.894;6.492;2023-03-01T18:57:50;4.40;;;4.05;;
60308;SDS011;50313;52.894;6.492;2023-03-01T19:00:16;6.07;;;4.00;;
60308;SDS011;50313;52.894;6.492;2023-03-01T19:02:42;5.38;;;4.97;;
60308;SDS011;50313;52.894;6.492;2023-03-01T19:05:08;6.28;;;4.40;;
60308;SDS011;50313;52.894;6.492;2023-03-01T19:07:34;4.47;;;3.70;;
60308;SDS011;50313;52.894;6.492;2023-03-01T19:10:00;7.40;;;3.88;;
60308;SDS011;50313;52.894;6.492;2023-03-01T19:12:25;4.32;;;3.80;;
60308;SDS011;50313;52.894;6.492;2023-03-01T19:14:52;6.28;;;4.53;;
60308;SDS011;50313;52.894;6.492;2023-03-01T19:17:20;4.68;;;4.28;;
60308;SDS011;50313;52.894;6.492;2023-03-01T19:19:54;9.15;;;3.67;;
60308;SDS011;50313;52.894;6.492;2023-03-01T19:22:21;5.63;;;4.72;;
60308;SDS011;50313;52.894;6.492;2023-03-01T19:24:47;4.22;;;2.30;;
60308;SDS011;50313;52.894;6.492;2023-03-01T19:27:12;5.57;;;3.90;;
60308;SDS011;50313;52.894;6.492;2023-03-01T19:29:38;6.57;;;4.63;;
60308;SDS011;50313;52.894;6.492;2023-03-01T19:32:04;4.70;;;2.83;;
60308;SDS011;50313;52.894;6.492;2023-03-01T19:34:30;10.80;;;5.03;;
60308;SDS011;50313;52.894;6.492;2023-03-01T19:36:57;5.30;;;2.70;;
60308;SDS011;50313;52.894;6.492;2023-03-01T19:39:22;8.68;;;2.83;;
60308;SDS011;50313;52.894;6.492;2023-03-01T19:41:48;3.65;;;3.13;;
60308;SDS011;50313;52.894;6.492;2023-03-01T19:44:14;9.60;;;5.38;;
60308;SDS011;50313;52.894;6.492;2023-03-01T19:46:41;8.93;;;5.15;;